Time;durP1;ratioP1;P1;durP2;ratioP2;P2;SDS_P1;SDS_P2;PMS_P1;PMS_P2;Temp;Humidity;BMP_temperature;BMP_pressure;BME280_temperature;BME280_humidity;BME280_pressure;Samples;Min_cycle;Max_cycle;Signal;HPM_P1;HPM_P2
2021/07/28 00:01:01;;;;;;;14.88;8.10;;;;;;;23.65;50.90;98791.09;5067397;28;20045;-90
2021/07/28 00:03:26;;;;;;;14.00;8.32;;;;;;;23.78;50.92;98810.88;5074765;28;20029;-88
2021/07/28 00:05:52;;;;;;;12.48;7.90;;;;;;;23.89;50.86;98810.84;5073413;28;20052;-91
2021/07/28 00:08:20;;;;;;;11.32;7.85;;;;;;;23.82;50.57;98781.63;5067217;28;20042;-90
2021/07/28 00:10:45;;;;;;;13.57;8.38;;;;;;;23.99;50.70;98809.13;5068764;28;20872;-91
2021/07/28 00:13:11;;;;;;;18.38;8.35;;;;;;;23.92;50.79;98801.59;5068960;28;20036;-90
2021/07/28 00:15:37;;;;;;;12.65;8.15;;;;;;;23.74;51.03;98779.50;5066855;28;20119;-90
2021/07/28 00:18:25;;;;;;;14.40;8.13;;;;;;;23.91;50.96;98806.16;5069924;28;20037;-91
2021/07/28 00:23:51;;;;;;;13.20;7.40;;;;;;;23.89;51.22;98791.00;5107567;27;20388;-90
2021/07/28 00:26:17;;;;;;;14.43;7.72;;;;;;;23.92;51.32;98794.34;5108817;28;20791;-89
2021/07/28 00:28:42;;;;;;;12.20;7.45;;;;;;;23.85;51.52;98784.94;5110462;28;20040;-90
2021/07/28 00:31:08;;;;;;;12.23;8.30;;;;;;;23.87;51.67;98793.81;5106131;28;20511;-88
2021/07/28 00:33:34;;;;;;;12.63;8.05;;;;;;;23.77;51.87;98776.56;5110709;28;20401;-90
2021/07/28 00:35:59;;;;;;;20.08;8.20;;;;;;;23.77;52.42;98793.72;5099972;28;20044;-91
2021/07/28 00:38:25;;;;;;;17.27;7.82;;;;;;;23.74;52.71;98795.78;5107913;28;20066;-89
2021/07/28 00:40:52;;;;;;;16.25;8.50;;;;;;;23.74;52.45;98782.22;5109574;28;20081;-90
2021/07/28 00:43:23;;;;;;;16.45;7.72;;;;;;;23.77;52.92;98787.44;5109839;28;20039;-92
2021/07/28 00:45:49;;;;;;;14.52;8.00;;;;;;;23.72;52.61;98770.59;5107332;28;20044;-90
2021/07/28 00:48:15;;;;;;;12.43;8.15;;;;;;;23.73;52.82;98781.34;5108077;28;20036;-89
2021/07/28 00:50:42;;;;;;;14.60;7.95;;;;;;;23.68;53.02;98777.28;5109699;28;20760;-91
2021/07/28 00:53:16;;;;;;;14.10;8.57;;;;;;;23.52;53.61;98764.94;5109069;28;20127;-91
2021/07/28 00:55:43;;;;;;;13.52;8.18;;;;;;;23.48;53.96;98762.59;5108157;28;20397;-89
2021/07/28 00:58:10;;;;;;;17.30;8.93;;;;;;;23.37;53.77;98747.19;5104985;28;20401;-89
2021/07/28 01:00:36;;;;;;;14.63;8.52;;;;;;;23.38;54.33;98757.91;5108119;28;20506;-90
2021/07/28 01:03:02;;;;;;;16.80;8.70;;;;;;;23.49;54.46;98778.78;5109313;28;20040;-91
2021/07/28 01:05:28;;;;;;;13.18;8.00;;;;;;;23.39;54.51;98758.78;5109905;28;20039;-90
2021/07/28 01:07:54;;;;;;;18.63;9.00;;;;;;;23.46;54.26;98765.41;5109426;28;20059;-90
2021/07/28 01:10:20;;;;;;;12.35;8.15;;;;;;;23.42;54.44;98753.13;5109268;28;20032;-90
2021/07/28 01:12:51;;;;;;;13.13;8.50;;;;;;;23.50;54.46;98769.63;5109801;28;20052;-90
2021/07/28 01:18:18;;;;;;;15.55;8.13;;;;;;;23.45;54.70;98761.00;5089919;27;20359;-91
2021/07/28 01:20:45;;;;;;;15.20;8.60;;;;;;;23.42;55.14;98758.53;5090089;28;20048;-90
2021/07/28 01:23:19;;;;;;;15.57;8.85;;;;;;;23.37;55.02;98758.88;5088228;28;20068;-93
2021/07/28 01:25:46;;;;;;;18.35;9.23;;;;;;;23.40;55.40;98763.22;5089802;28;20044;-91
2021/07/28 01:28:12;;;;;;;15.32;9.10;;;;;;;23.33;55.18;98751.13;5089818;28;20054;-91
2021/07/28 01:30:39;;;;;;;13.90;8.40;;;;;;;23.27;55.48;98748.88;5088185;28;20064;-92
2021/07/28 01:33:06;;;;;;;13.15;8.45;;;;;;;23.33;55.63;98761.97;5089594;28;20133;-91
2021/07/28 01:35:35;;;;;;;18.58;8.02;;;;;;;23.22;55.41;98748.41;5089310;28;20056;-90
2021/07/28 01:38:01;;;;;;;13.90;8.25;;;;;;;23.15;55.75;98735.31;5089604;28;20047;-90
2021/07/28 01:40:29;;;;;;;14.38;8.48;;;;;;;23.16;56.18;98741.59;5089175;28;20064;-91
2021/07/28 01:42:54;;;;;;;13.60;8.27;;;;;;;23.15;56.35;98742.59;5088653;28;20028;-91
2021/07/28 01:45:20;;;;;;;12.57;8.45;;;;;;;23.12;56.54;98757.28;5087952;28;20036;-91
2021/07/28 01:47:46;;;;;;;13.27;8.32;;;;;;;23.05;56.74;98741.59;5089950;28;20127;-91
2021/07/28 01:50:13;;;;;;;13.05;8.45;;;;;;;23.08;56.49;98753.06;5089316;28;20055;-90
2021/07/28 01:52:40;;;;;;;11.40;9.00;;;;;;;23.05;56.77;98738.88;5089481;28;20060;-91
2021/07/28 01:55:08;;;;;;;15.10;8.82;;;;;;;23.06;56.29;98749.63;5089163;28;20127;-91
2021/07/28 01:57:35;;;;;;;16.30;8.90;;;;;;;23.06;56.94;98755.03;5089184;28;20082;-91
2021/07/28 02:00:01;;;;;;;13.88;7.97;;;;;;;22.89;56.94;98740.06;5084560;28;20422;-91
2021/07/28 02:02:31;;;;;;;12.52;8.32;;;;;;;22.92;57.48;98749.78;5089198;28;20137;-90
2021/07/28 02:04:58;;;;;;;14.85;8.55;;;;;;;22.68;58.01;98734.44;5088664;28;20040;-91
2021/07/28 02:07:24;;;;;;;14.93;8.75;;;;;;;22.72;58.02;98756.78;5089111;28;20044;-91
2021/07/28 02:09:50;;;;;;;15.68;9.38;;;;;;;22.49;58.40;98736.88;5089331;28;20047;-91
2021/07/28 02:12:16;;;;;;;18.95;9.55;;;;;;;22.49;58.91;98740.44;5088921;28;20060;-91
2021/07/28 02:14:43;;;;;;;14.05;9.38;;;;;;;22.44;59.00;98736.34;5089134;28;20048;-91
2021/07/28 02:17:09;;;;;;;12.40;8.35;;;;;;;22.44;59.20;98752.59;5085306;28;20044;-91
2021/07/28 02:19:34;;;;;;;15.50;8.55;;;;;;;22.45;59.74;98749.78;5088686;28;20047;-91
2021/07/28 02:22:00;;;;;;;13.68;8.35;;;;;;;22.49;59.53;98763.97;5088854;28;20046;-90
2021/07/28 02:24:26;;;;;;;16.08;9.55;;;;;;;22.47;59.54;98765.94;5089001;28;20074;-91
2021/07/28 02:26:52;;;;;;;16.67;9.23;;;;;;;22.50;59.71;98757.56;5088707;28;20044;-91
2021/07/28 02:29:18;;;;;;;13.23;9.18;;;;;;;22.51;59.60;98741.19;5076651;28;20097;-91
2021/07/28 02:31:45;;;;;;;15.43;9.82;;;;;;;22.46;59.38;98732.53;5073674;28;20064;-91
2021/07/28 02:34:11;;;;;;;13.65;8.85;;;;;;;22.49;59.66;98742.31;5075543;28;20033;-91
2021/07/28 02:36:36;;;;;;;16.25;8.88;;;;;;;22.39;59.54;98728.56;5075106;28;20131;-91
2021/07/28 02:39:02;;;;;;;13.18;8.85;;;;;;;22.34;60.10;98733.50;5075492;28;20040;-90
2021/07/28 02:41:28;;;;;;;17.38;8.63;;;;;;;22.34;59.92;98745.19;5074903;28;20516;-92
2021/07/28 02:43:54;;;;;;;15.30;9.30;;;;;;;22.25;60.78;98743.19;5075596;28;20517;-89
2021/07/28 02:46:21;;;;;;;16.25;8.75;;;;;;;22.13;60.74;98731.38;5073663;28;20064;-91
2021/07/28 02:48:48;;;;;;;17.70;10.35;;;;;;;22.01;60.99;98721.50;5074737;28;20036;-90
2021/07/28 02:51:14;;;;;;;15.30;9.20;;;;;;;22.02;61.22;98735.88;5074871;28;20080;-91
2021/07/28 02:53:40;;;;;;;25.10;10.23;;;;;;;21.99;61.38;98745.09;5075322;28;20063;-91
2021/07/28 02:56:06;;;;;;;13.98;9.43;;;;;;;21.89;62.09;98741.34;5075017;28;20056;-90
2021/07/28 02:58:32;;;;;;;15.10;8.98;;;;;;;21.72;62.23;98712.81;5075229;28;20036;-91
2021/07/28 03:00:57;;;;;;;15.98;9.80;;;;;;;21.76;61.98;98735.13;5073407;28;20154;-92
2021/07/28 03:03:23;;;;;;;16.00;9.82;;;;;;;21.72;62.26;98738.03;5075082;28;20098;-91
2021/07/28 03:05:50;;;;;;;14.55;9.30;;;;;;;21.49;62.82;98720.78;5075097;28;20066;-91
2021/07/28 03:08:16;;;;;;;15.27;9.43;;;;;;;21.52;63.73;98739.50;5074505;28;20064;-92
2021/07/28 03:10:42;;;;;;;14.50;9.48;;;;;;;21.47;63.32;98727.25;5074767;28;20060;-91
2021/07/28 03:13:08;;;;;;;13.90;9.68;;;;;;;21.43;63.46;98726.63;5074701;28;20040;-89
2021/07/28 03:15:34;;;;;;;15.00;9.77;;;;;;;21.42;63.51;98721.31;5072791;28;20071;-91
2021/07/28 03:18:00;;;;;;;16.08;9.48;;;;;;;21.48;63.86;98731.72;5074407;28;20178;-91
2021/07/28 03:20:26;;;;;;;15.65;9.35;;;;;;;21.66;63.49;98727.66;5074518;28;20519;-91
2021/07/28 03:22:53;;;;;;;13.35;9.35;;;;;;;21.74;63.04;98710.84;5074738;28;20376;-91
2021/07/28 03:25:19;;;;;;;15.07;9.80;;;;;;;21.67;63.18;98701.47;5074169;28;20033;-90
2021/07/28 03:27:45;;;;;;;20.20;10.15;;;;;;;21.63;63.00;98708.09;5074364;28;20046;-91
2021/07/28 03:30:11;;;;;;;17.67;10.10;;;;;;;21.72;63.03;98729.06;5072807;28;20047;-91
2021/07/28 03:32:37;;;;;;;14.43;9.50;;;;;;;21.67;63.49;98726.69;5074276;28;20033;-92
2021/07/28 03:35:03;;;;;;;16.05;9.85;;;;;;;21.57;63.44;98717.50;5074202;28;20059;-92
2021/07/28 03:37:29;;;;;;;20.85;10.20;;;;;;;21.62;63.67;98730.69;5074037;28;20071;-92
2021/07/28 03:42:58;;;;;;;17.67;9.10;;;;;;;21.49;63.51;98726.19;5127182;27;20368;-89
2021/07/28 03:45:24;;;;;;;14.93;10.02;;;;;;;21.41;63.80;98719.56;5129119;28;20054;-92
2021/07/28 03:47:50;;;;;;;17.83;11.02;;;;;;;21.48;64.27;98726.31;5131101;28;20035;-91
2021/07/28 03:50:16;;;;;;;16.42;10.82;;;;;;;21.59;63.62;98728.22;5131637;28;20027;-90
2021/07/28 03:52:41;;;;;;;16.77;10.40;;;;;;;21.68;62.89;98722.13;5131035;28;20459;-87
2021/07/28 03:55:08;;;;;;;16.48;9.98;;;;;;;21.80;62.83;98723.94;5131213;28;20080;-90
2021/07/28 03:57:34;;;;;;;16.02;9.95;;;;;;;21.94;62.13;98721.06;5131308;28;20035;-94
2021/07/28 04:00:01;;;;;;;17.08;10.38;;;;;;;22.07;61.82;98722.84;5129650;28;20527;-89
2021/07/28 04:02:27;;;;;;;15.65;9.70;;;;;;;22.06;61.60;98723.84;5128921;28;20038;-89
2021/07/28 04:04:53;;;;;;;14.70;10.30;;;;;;;22.08;61.62;98724.59;5131074;28;20051;-90
2021/07/28 04:07:18;;;;;;;17.75;10.38;;;;;;;21.99;61.93;98707.19;5131089;28;20047;-91
2021/07/28 04:09:44;;;;;;;19.58;10.35;;;;;;;22.10;62.01;98722.66;5130704;28;20035;-91
2021/07/28 04:12:10;;;;;;;18.65;10.07;;;;;;;22.12;61.71;98726.06;5130873;28;20050;-92
2021/07/28 04:14:36;;;;;;;17.65;10.00;;;;;;;22.17;61.74;98720.34;5127804;28;20036;-90
2021/07/28 04:17:04;;;;;;;14.48;9.60;;;;;;;22.17;61.60;98720.34;5128979;28;20039;-90
2021/07/28 04:19:30;;;;;;;14.82;9.73;;;;;;;21.98;60.71;98712.72;5129187;28;20038;-89
2021/07/28 04:21:55;;;;;;;15.13;9.18;;;;;;;21.79;60.76;98705.97;5130367;28;20032;-92
2021/07/28 04:24:21;;;;;;;14.80;9.40;;;;;;;21.70;61.39;98739.13;5130716;28;20054;-91
2021/07/28 04:26:47;;;;;;;15.32;10.07;;;;;;;21.58;62.07;98740.00;5130592;28;20035;-91
2021/07/28 04:29:13;;;;;;;21.65;9.90;;;;;;;21.43;62.40;98726.63;5130601;28;20047;-92
2021/07/28 04:31:39;;;;;;;15.30;9.73;;;;;;;21.27;62.96;98725.97;5128975;28;20044;-92
2021/07/28 04:34:06;;;;;;;15.93;9.88;;;;;;;21.19;63.41;98733.75;5130497;28;20031;-92
2021/07/28 04:36:32;;;;;;;15.82;10.07;;;;;;;21.10;64.14;98738.88;5129999;28;20043;-92
2021/07/28 04:38:59;;;;;;;17.00;9.77;;;;;;;20.93;64.41;98731.09;5130279;28;20096;-91
2021/07/28 04:41:25;;;;;;;15.70;10.60;;;;;;;20.95;64.80;98744.47;5130154;28;20039;-91
2021/07/28 04:43:51;;;;;;;15.43;10.07;;;;;;;20.84;64.85;98739.81;5130539;28;20497;-91
2021/07/28 04:46:17;;;;;;;15.95;10.65;;;;;;;20.76;66.34;98743.06;5128452;27;20031;-90
2021/07/28 04:48:43;;;;;;;19.10;11.15;;;;;;;20.73;67.25;98743.25;5130452;28;20047;-92
2021/07/28 04:51:11;;;;;;;20.00;11.45;;;;;;;20.89;66.17;98716.03;5129988;28;20032;-93
2021/07/28 04:53:36;;;;;;;16.77;10.38;;;;;;;21.13;65.25;98725.13;5118726;28;20032;-92
2021/07/28 04:56:02;;;;;;;17.23;10.50;;;;;;;21.35;64.43;98731.69;5116216;28;20043;-91
2021/07/28 04:58:28;;;;;;;20.63;10.52;;;;;;;21.71;62.78;98743.56;5116254;28;20366;-91
2021/07/28 05:00:54;;;;;;;14.73;9.95;;;;;;;21.89;62.17;98742.19;5116572;28;20096;-90
2021/07/28 05:03:20;;;;;;;20.25;10.35;;;;;;;22.03;63.10;98738.47;5116157;28;20047;-92
2021/07/28 05:05:46;;;;;;;18.13;11.93;;;;;;;22.10;60.86;98744.31;5116088;28;20046;-90
2021/07/28 05:08:13;;;;;;;16.70;9.68;;;;;;;22.20;60.58;98753.44;5116473;28;20043;-91
2021/07/28 05:10:39;;;;;;;18.63;10.48;;;;;;;22.30;59.61;98734.72;5116318;28;20726;-90
2021/07/28 05:13:05;;;;;;;18.08;11.10;;;;;;;22.78;59.00;98740.03;5116124;27;20071;-92
2021/07/28 05:15:31;;;;;;;14.48;9.48;;;;;;;23.24;57.87;98731.00;5114711;28;20790;-92
2021/07/28 05:17:57;;;;;;;19.17;9.98;;;;;;;23.39;57.31;98731.63;5115948;28;20034;-92
2021/07/28 05:20:23;;;;;;;19.65;9.60;;;;;;;23.52;57.19;98734.22;5115832;28;20308;-92
2021/07/28 05:22:49;;;;;;;18.25;9.77;;;;;;;23.94;56.92;98743.47;5115931;28;20035;-92
2021/07/28 05:25:17;;;;;;;20.13;10.02;;;;;;;24.36;54.25;98750.88;5115729;28;21550;-92
2021/07/28 05:27:43;;;;;;;13.98;9.82;;;;;;;24.44;53.60;98758.38;5115541;28;20071;-91
2021/07/28 05:30:10;;;;;;;15.80;10.18;;;;;;;24.27;53.67;98766.09;5114350;28;20039;-92
2021/07/28 05:32:36;;;;;;;16.73;9.63;;;;;;;24.27;53.65;98757.94;5116075;28;20031;-93
2021/07/28 05:35:02;;;;;;;15.20;10.00;;;;;;;24.31;53.35;98742.22;5115499;28;20047;-91
2021/07/28 05:37:28;;;;;;;13.60;9.77;;;;;;;24.66;52.89;98765.59;5115765;28;20036;-91
2021/07/28 05:39:54;;;;;;;16.15;9.93;;;;;;;24.60;52.49;98764.28;5115410;28;20501;-92
2021/07/28 05:42:21;;;;;;;15.23;9.65;;;;;;;24.64;53.25;98749.44;5114923;28;20097;-92
2021/07/28 05:44:48;;;;;;;17.17;9.90;;;;;;;24.87;52.25;98755.59;5114878;28;20377;-93
2021/07/28 05:47:14;;;;;;;18.88;9.98;;;;;;;24.80;52.59;98746.25;5114014;28;20412;-91
2021/07/28 05:49:39;;;;;;;13.25;9.77;;;;;;;24.82;52.13;98741.53;5115086;28;20081;-91
2021/07/28 05:52:06;;;;;;;15.73;9.43;;;;;;;24.79;52.39;98750.81;5115518;28;20063;-91
2021/07/28 05:54:32;;;;;;;17.63;9.93;;;;;;;24.90;52.35;98747.19;5115456;28;20500;-90
2021/07/28 05:56:58;;;;;;;14.23;9.50;;;;;;;25.11;52.00;98758.06;5115427;28;20070;-91
2021/07/28 05:59:27;;;;;;;16.90;9.95;;;;;;;25.23;51.11;98747.97;5115422;28;20043;-94
2021/07/28 06:01:52;;;;;;;15.20;9.05;;;;;;;25.41;50.17;98745.47;5113765;28;20054;-90
2021/07/28 06:04:18;;;;;;;17.50;9.52;;;;;;;25.37;50.11;98747.63;5113693;28;20477;-93
2021/07/28 06:06:44;;;;;;;18.65;10.43;;;;;;;25.31;50.22;98730.94;5115251;28;20044;-92
2021/07/28 06:09:10;;;;;;;18.65;9.80;;;;;;;25.62;49.73;98732.69;5115009;28;20446;-92
2021/07/28 06:11:36;;;;;;;15.82;9.13;;;;;;;25.58;48.72;98750.28;5115112;28;20473;-92
2021/07/28 06:14:02;;;;;;;15.90;9.18;;;;;;;25.54;48.81;98754.28;5114885;28;20049;-91
2021/07/28 06:16:29;;;;;;;17.73;9.68;;;;;;;25.58;48.23;98739.38;5113336;28;20135;-90
2021/07/28 06:18:55;;;;;;;18.70;10.07;;;;;;;25.78;47.64;98756.66;5114989;28;20362;-91
2021/07/28 06:21:21;;;;;;;19.25;10.20;;;;;;;25.56;47.01;98762.31;5114639;28;20050;-92
2021/07/28 06:23:46;;;;;;;15.98;9.68;;;;;;;25.32;46.88;98754.47;5114915;28;20527;-92
2021/07/28 06:26:12;;;;;;;17.13;9.70;;;;;;;25.71;48.06;98766.38;5115140;28;20035;-92
2021/07/28 06:28:38;;;;;;;15.02;9.90;;;;;;;26.07;47.15;98763.22;5115067;28;20395;-92
2021/07/28 06:31:04;;;;;;;17.80;9.63;;;;;;;26.13;47.25;98758.09;5115943;28;20043;-94
2021/07/28 06:33:31;;;;;;;14.02;10.02;;;;;;;26.42;46.25;98769.03;5118385;27;20063;-94
2021/07/28 06:35:57;;;;;;;16.80;10.05;;;;;;;26.56;46.81;98772.38;5118217;28;20048;-94
2021/07/28 06:38:23;;;;;;;14.25;9.00;;;;;;;26.82;45.33;98776.22;5118272;28;20035;-93
2021/07/28 06:40:49;;;;;;;18.98;10.15;;;;;;;26.46;44.45;98766.00;5115739;28;20142;-92
2021/07/28 06:43:16;;;;;;;18.00;10.43;;;;;;;26.63;44.50;98779.84;5114434;28;20036;-93
2021/07/28 06:45:43;;;;;;;16.75;9.75;;;;;;;26.59;44.39;98762.03;5116712;28;20048;-92
2021/07/28 06:48:09;;;;;;;18.13;9.98;;;;;;;26.67;44.11;98763.19;5118220;28;20027;-93
2021/07/28 06:50:37;;;;;;;20.80;10.15;;;;;;;27.20;42.88;98776.34;5118778;28;20485;-94
2021/07/28 06:53:03;;;;;;;15.65;9.18;;;;;;;27.57;42.18;98764.63;5114176;28;20035;-94
2021/07/28 06:55:29;;;;;;;14.27;9.48;;;;;;;27.92;40.12;98772.09;5118015;28;20393;-93
2021/07/28 06:57:55;;;;;;;20.30;10.10;;;;;;;28.00;39.88;98747.59;5116640;28;20069;-95
2021/07/28 07:00:21;;;;;;;13.90;9.63;;;;;;;28.23;38.69;98758.09;5114325;28;20093;-93
2021/07/28 07:02:47;;;;;;;16.70;10.10;;;;;;;28.25;38.90;98762.38;5114677;28;20036;-93
2021/07/28 07:05:15;;;;;;;16.27;9.48;;;;;;;28.14;39.53;98767.22;5114727;28;20643;-93
2021/07/28 07:07:42;;;;;;;14.60;9.25;;;;;;;27.81;39.16;98743.06;5114843;28;20054;-95
2021/07/28 07:10:09;;;;;;;14.07;9.65;;;;;;;27.83;39.52;98764.78;5117610;28;20039;-95
2021/07/28 07:12:36;;;;;;;15.80;9.20;;;;;;;27.48;40.19;98736.31;5118577;28;20039;-95
2021/07/28 07:15:02;;;;;;;15.38;9.98;;;;;;;27.61;39.86;98758.69;5119535;28;20047;-96
2021/07/28 07:17:29;;;;;;;16.23;10.05;;;;;;;27.51;40.26;98743.34;5118289;28;20044;-95
2021/07/28 07:19:55;;;;;;;15.93;9.95;;;;;;;27.69;39.00;98748.88;5116517;28;20104;-94
2021/07/28 07:22:21;;;;;;;14.40;9.95;;;;;;;27.78;39.21;98747.97;5116446;28;20074;-93
2021/07/28 07:24:48;;;;;;;13.25;9.70;;;;;;;27.64;38.82;98736.53;5116857;28;20040;-95
2021/07/28 07:27:15;;;;;;;15.93;10.57;;;;;;;27.66;38.55;98745.44;5116639;28;20039;-95
2021/07/28 07:29:41;;;;;;;14.68;9.85;;;;;;;27.63;39.44;98753.09;5117556;28;20048;-94
2021/07/28 07:32:09;;;;;;;17.60;10.10;;;;;;;27.36;40.09;98742.97;5117545;28;20067;-94
2021/07/28 07:34:35;;;;;;;17.45;10.75;;;;;;;27.04;40.03;98738.72;5119590;28;20145;-95
2021/07/28 07:37:01;;;;;;;16.73;10.20;;;;;;;27.29;38.71;98741.84;5117205;28;20048;-92
2021/07/28 07:39:27;;;;;;;15.85;10.50;;;;;;;27.85;38.37;98747.25;5115097;28;20035;-93
2021/07/28 07:41:54;;;;;;;12.18;9.07;;;;;;;27.97;37.00;98753.34;5114597;28;20138;-93
2021/07/28 07:44:20;;;;;;;16.55;10.00;;;;;;;28.23;36.63;98742.53;5115638;28;20074;-93
2021/07/28 07:46:46;;;;;;;13.98;9.60;;;;;;;28.54;36.15;98728.53;5115588;28;20035;-93
2021/07/28 07:49:12;;;;;;;15.10;9.88;;;;;;;29.06;34.65;98734.09;5114605;28;20072;-93
2021/07/28 07:51:38;;;;;;;13.48;9.95;;;;;;;29.32;34.35;98730.53;5114548;28;20489;-93
2021/07/28 07:54:03;;;;;;;14.18;9.63;;;;;;;29.38;34.07;98720.78;5115333;28;20043;-94
2021/07/28 07:56:29;;;;;;;16.63;9.75;;;;;;;29.67;33.48;98707.56;5115389;28;20435;-92
2021/07/28 07:58:57;;;;;;;15.55;9.60;;;;;;;30.23;33.09;98731.75;5115546;28;20040;-94
2021/07/28 08:01:23;;;;;;;15.20;10.40;;;;;;;30.50;32.71;98717.78;5115162;28;20035;-93
2021/07/28 08:03:50;;;;;;;12.32;9.70;;;;;;;30.81;32.46;98719.84;5116246;28;20039;-93
2021/07/28 08:06:16;;;;;;;16.42;9.93;;;;;;;31.11;31.75;98722.94;5118002;28;20088;-92
2021/07/28 08:08:41;;;;;;;17.52;10.32;;;;;;;31.19;31.01;98700.09;5117559;28;20071;-94
2021/07/28 08:11:09;;;;;;;15.30;10.18;;;;;;;30.79;31.27;98707.31;5115862;28;20063;-93
2021/07/28 08:13:35;;;;;;;14.82;10.13;;;;;;;30.55;32.19;98702.69;5116217;28;20044;-94
2021/07/28 08:16:09;;;;;;;13.90;9.45;;;;;;;30.17;31.14;98724.22;5114808;28;20067;-94
2021/07/28 08:18:35;;;;;;;16.80;10.43;;;;;;;30.24;31.76;98701.44;5115707;28;20366;-95
2021/07/28 08:21:06;;;;;;;13.27;9.35;;;;;;;30.46;29.54;98705.41;5114482;28;20047;-93
2021/07/28 08:23:32;;;;;;;12.65;9.77;;;;;;;30.96;29.93;98691.72;5114928;28;20040;-94
2021/07/28 08:25:58;;;;;;;12.27;9.77;;;;;;;31.04;27.67;98711.78;5114618;28;20040;-96
2021/07/28 08:28:24;;;;;;;12.68;9.00;;;;;;;30.66;27.18;98697.69;5116812;28;20171;-93
2021/07/28 08:30:50;;;;;;;12.70;8.95;;;;;;;31.20;27.05;98710.91;5118901;28;20397;-94
2021/07/28 08:33:18;;;;;;;11.35;9.93;;;;;;;30.84;26.08;98705.78;5120976;28;20047;-94
2021/07/28 08:35:43;;;;;;;13.80;9.60;;;;;;;31.19;26.19;98700.97;5119422;28;20126;-94
2021/07/28 08:38:09;;;;;;;15.32;8.70;;;;;;;31.10;25.33;98721.25;5119903;28;20063;-95
2021/07/28 08:40:37;;;;;;;93.57;16.30;;;;;;;31.20;24.93;98721.03;5119959;28;20039;-93
2021/07/28 08:43:05;;;;;;;17.98;9.77;;;;;;;31.30;24.14;98706.06;5119573;28;20136;-95
2021/07/28 08:45:31;;;;;;;15.32;9.35;;;;;;;31.22;23.81;98697.84;5120740;28;20070;-95
2021/07/28 08:47:57;;;;;;;12.73;9.27;;;;;;;31.55;24.13;98725.25;5119516;28;20071;-94
2021/07/28 08:50:28;;;;;;;11.23;8.85;;;;;;;31.66;23.74;98711.16;5120063;28;20519;-95
2021/07/28 08:52:56;;;;;;;11.07;9.05;;;;;;;31.61;24.03;98710.81;5121694;28;20035;-95
2021/07/28 08:55:23;;;;;;;13.32;9.35;;;;;;;31.58;24.31;98722.16;5123192;28;20040;-94
2021/07/28 08:57:49;;;;;;;13.43;8.85;;;;;;;31.50;23.26;98697.47;5121949;28;20039;-96
2021/07/28 09:00:16;;;;;;;13.95;9.13;;;;;;;31.58;22.91;98713.94;5120273;28;20043;-95
2021/07/28 09:02:46;;;;;;;12.25;9.02;;;;;;;32.04;21.90;98716.84;5118847;28;20043;-93
2021/07/28 09:05:13;;;;;;;12.32;8.75;;;;;;;31.77;22.24;98684.28;5115521;28;20047;-96
2021/07/28 09:07:52;;;;;;;11.32;9.07;;;;;;;32.01;21.62;98688.81;5119518;28;20047;-96
2021/07/28 09:10:18;;;;;;;10.75;8.90;;;;;;;32.40;21.87;98686.00;5119169;28;20118;-94
2021/07/28 09:12:45;;;;;;;11.68;9.50;;;;;;;32.43;20.73;98690.28;5119785;28;20162;-94
2021/07/28 09:15:15;;;;;;;14.48;9.98;;;;;;;32.18;21.52;98697.84;5123152;28;20374;-95
2021/07/28 09:17:47;;;;;;;10.60;9.07;;;;;;;32.02;21.49;98702.41;5123579;28;20050;-94
2021/07/28 09:20:32;;;;;;;13.45;9.10;;;;;;;32.26;21.57;98681.28;5123287;28;20118;-93
2021/07/28 09:23:16;;;;;;;14.20;9.25;;;;;;;32.25;21.01;98669.44;5123419;27;20575;-94
2021/07/28 09:25:42;;;;;;;10.73;8.48;;;;;;;31.70;21.35;98693.25;5122971;28;20039;-94
2021/07/28 09:28:19;;;;;;;13.13;9.02;;;;;;;31.70;22.12;98668.50;5120479;28;20043;-95
2021/07/28 09:30:45;;;;;;;11.85;8.50;;;;;;;32.18;20.64;98684.06;5119124;28;20047;-93
2021/07/28 09:33:11;;;;;;;10.77;8.18;;;;;;;32.57;19.11;98661.13;5120060;28;20082;-94
2021/07/28 09:36:16;;;;;;;12.00;8.40;;;;;;;32.37;18.99;98694.59;5119078;28;20040;-92
2021/07/28 09:38:45;;;;;;;9.52;7.53;;;;;;;32.39;18.26;98676.03;5118345;28;20052;-92
2021/07/28 09:41:37;;;;;;;11.60;8.25;;;;;;;32.61;18.24;98660.56;5118700;28;20055;-94
2021/07/28 09:44:06;;;;;;;13.30;7.72;;;;;;;33.18;17.87;98659.16;5116359;28;20047;-93
2021/07/28 09:46:48;;;;;;;9.82;7.70;;;;;;;32.87;17.43;98657.38;5118890;28;20051;-95
2021/07/28 09:50:11;;;;;;;10.68;7.80;;;;;;;32.74;16.82;98649.75;5103233;28;20051;-93
2021/07/28 09:52:51;;;;;;;9.35;7.25;;;;;;;33.26;16.90;98672.84;5117812;28;20031;-95
2021/07/28 09:55:24;;;;;;;13.15;7.45;;;;;;;32.87;16.99;98657.38;5112571;28;20115;-94
2021/07/28 09:57:54;;;;;;;11.23;7.20;;;;;;;32.85;17.46;98651.19;5118672;28;20131;-95
2021/07/28 10:00:51;;;;;;;11.05;7.63;;;;;;;33.21;16.69;98678.09;5119218;28;20050;-93
2021/07/28 10:03:29;;;;;;;10.43;7.17;;;;;;;33.49;16.38;98652.63;5117022;28;20045;-95
2021/07/28 10:05:58;;;;;;;9.70;6.70;;;;;;;33.63;16.13;98651.75;5121824;28;20039;-94
2021/07/28 10:08:24;;;;;;;9.30;6.93;;;;;;;33.61;15.78;98669.53;5119749;28;20042;-91
2021/07/28 10:10:52;;;;;;;10.45;6.90;;;;;;;33.85;15.80;98665.59;5116727;28;20032;-93
2021/07/28 10:13:19;;;;;;;9.90;7.50;;;;;;;33.63;15.67;98660.03;5117620;28;20481;-92
2021/07/28 10:15:48;;;;;;;9.40;7.35;;;;;;;32.70;16.28;98642.06;5117628;28;20047;-92
2021/07/28 10:18:16;;;;;;;11.68;7.18;;;;;;;33.43;16.23;98647.88;5117853;28;20485;-94
2021/07/28 10:20:42;;;;;;;9.95;6.80;;;;;;;33.67;15.86;98642.06;5119034;28;20054;-93
2021/07/28 10:23:09;;;;;;;9.48;7.05;;;;;;;33.79;16.13;98630.50;5119406;28;20055;-93
2021/07/28 10:25:35;;;;;;;10.57;7.18;;;;;;;33.38;16.46;98637.41;5117361;28;20043;-92
2021/07/28 10:28:06;;;;;;;8.15;6.68;;;;;;;33.31;16.48;98658.50;5115801;28;20043;-94
2021/07/28 10:30:32;;;;;;;8.82;7.32;;;;;;;33.74;16.77;98653.16;5114124;28;20085;-92
2021/07/28 10:32:58;;;;;;;10.98;6.57;;;;;;;33.82;15.64;98641.19;5110887;28;20035;-94
2021/07/28 10:35:27;;;;;;;9.63;6.90;;;;;;;33.92;15.50;98626.03;5116245;28;20051;-93
2021/07/28 10:37:54;;;;;;;9.23;6.57;;;;;;;34.10;15.48;98621.97;5116340;28;20543;-93
2021/07/28 10:40:49;;;;;;;9.53;6.77;;;;;;;33.52;16.21;98650.31;5112608;28;20100;-94
2021/07/28 10:43:17;;;;;;;11.52;6.82;;;;;;;33.09;16.06;98652.03;5116265;28;20300;-92
2021/07/28 10:45:54;;;;;;;10.13;7.22;;;;;;;32.70;17.23;98650.31;5116566;28;20043;-92
2021/07/28 10:48:59;;;;;;;9.00;7.33;;;;;;;32.84;17.16;98651.41;5117964;28;20038;-93
2021/07/28 10:51:53;;;;;;;8.43;6.43;;;;;;;32.86;16.76;98658.44;5114326;28;20039;-92
2021/07/28 10:55:03;;;;;;;10.68;7.30;;;;;;;32.84;17.35;98656.94;5112533;28;20040;-92
2021/07/28 10:58:05;;;;;;;11.25;6.80;;;;;;;32.74;17.81;98646.16;5111795;28;20114;-92
2021/07/28 11:01:02;;;;;;;11.57;7.13;;;;;;;32.59;17.17;98643.38;5112222;28;20717;-92
2021/07/28 11:03:38;;;;;;;10.15;7.35;;;;;;;33.08;17.69;98636.56;5054228;28;20037;-94
2021/07/28 11:06:23;;;;;;;8.90;6.65;;;;;;;33.17;17.51;98624.38;5054939;28;20056;-92
2021/07/28 11:08:50;;;;;;;10.25;6.68;;;;;;;33.69;16.00;98628.94;5054137;28;20068;-93
2021/07/28 11:11:21;;;;;;;12.40;6.93;;;;;;;34.25;15.58;98610.91;5053846;28;20044;-94
2021/07/28 11:13:47;;;;;;;10.48;7.00;;;;;;;34.39;15.50;98606.34;5054389;28;20045;-92
2021/07/28 11:16:15;;;;;;;9.38;7.03;;;;;;;34.56;15.91;98605.00;5054317;28;20037;-91
2021/07/28 11:18:41;;;;;;;;;;;;;;;34.87;15.39;98625.88;5055175;28;20179;-94
2021/07/28 11:21:13;;;;;;;13.75;7.32;;;;;;;34.53;15.05;98597.97;5054324;28;19920;-95
2021/07/28 11:23:45;;;;;;;9.45;6.28;;;;;;;34.85;14.34;98606.78;5053987;28;20060;-94
2021/07/28 11:26:17;;;;;;;8.43;6.10;;;;;;;34.74;14.19;98587.97;5053351;28;20083;-95
2021/07/28 11:28:57;;;;;;;10.00;6.38;;;;;;;34.62;14.58;98597.84;5050672;28;20491;-95
2021/07/28 11:31:30;;;;;;;12.20;7.00;;;;;;;34.62;14.75;98600.59;5054390;28;20037;-92
2021/07/28 11:34:09;;;;;;;10.45;7.22;;;;;;;34.92;14.84;98593.00;5056511;28;20502;-95
2021/07/28 11:36:56;;;;;;;9.07;6.70;;;;;;;35.48;14.16;98603.09;5070998;28;20564;-93
2021/07/28 11:39:33;;;;;;;9.32;6.65;;;;;;;35.50;14.33;98598.22;5120348;28;20046;-94